createdAt,value
2023-01-25T00:00:25.607Z,3.41
2023-01-25T00:05:27.402Z,3.37
2023-01-25T00:10:29.262Z,3.38
2023-01-25T00:15:30.885Z,3.41
2023-01-25T00:20:32.535Z,3.43
2023-01-25T00:25:34.280Z,3.44
2023-01-25T00:30:35.977Z,3.40
2023-01-25T00:35:38.655Z,3.41
2023-01-25T00:40:40.288Z,3.46
2023-01-25T00:45:42.083Z,3.48
2023-01-25T00:50:44.085Z,3.51
2023-01-25T00:55:53.392Z,3.53
2023-01-25T01:00:56.190Z,3.50
2023-01-25T01:06:01.094Z,3.51
2023-01-25T01:11:06.186Z,3.55
2023-01-25T01:16:11.776Z,3.57
2023-01-25T01:21:14.206Z,3.56
2023-01-25T01:26:21.440Z,3.53
2023-01-25T01:31:24.352Z,3.53
2023-01-25T01:36:38.371Z,3.50
2023-01-25T01:41:40.121Z,3.51
2023-01-25T01:46:51.566Z,3.47
2023-01-25T01:52:20.221Z,3.43
2023-01-25T01:57:26.085Z,3.46
2023-01-25T02:02:29.715Z,3.46
2023-01-25T02:07:37.379Z,3.44
2023-01-25T02:12:39.453Z,3.43
2023-01-25T02:17:42.761Z,3.40
2023-01-25T02:23:02.135Z,3.44
2023-01-25T02:28:11.035Z,3.40
2023-01-25T02:33:13.098Z,3.39
2023-01-25T02:38:18.272Z,3.37
2023-01-25T02:43:20.635Z,3.35
2023-01-25T02:48:22.448Z,3.36
2023-01-25T02:53:24.967Z,3.33
2023-01-25T02:58:27.984Z,3.35
2023-01-25T03:03:29.683Z,3.38
2023-01-25T03:08:31.482Z,3.42
2023-01-25T03:13:34.675Z,3.44
2023-01-25T03:18:38.149Z,3.46
2023-01-25T03:23:40.944Z,3.46
2023-01-25T03:28:44.790Z,3.49
2023-01-25T03:33:47.020Z,3.47
2023-01-25T03:38:48.831Z,3.44
2023-01-25T03:43:50.823Z,3.35
2023-01-25T03:48:53.160Z,3.34
2023-01-25T03:53:55.041Z,3.37
2023-01-25T03:58:56.945Z,3.36
2023-01-25T04:03:58.745Z,3.33
2023-01-25T04:09:00.647Z,3.38
2023-01-25T04:14:10.258Z,3.37
2023-01-25T04:19:21.003Z,3.35
2023-01-25T04:24:22.866Z,3.15
2023-01-25T04:29:35.495Z,3.10
2023-01-25T04:34:42.653Z,3.10
2023-01-25T04:39:49.417Z,3.07
2023-01-25T04:44:51.435Z,3.11
2023-01-25T04:49:54.004Z,3.14
2023-01-25T04:54:59.344Z,3.20
2023-01-25T05:00:01.856Z,3.24
2023-01-25T05:05:04.660Z,3.25
2023-01-25T05:10:07.996Z,3.20
2023-01-25T05:15:13.777Z,3.23
2023-01-25T05:20:15.493Z,3.21
2023-01-25T05:25:36.224Z,3.12
2023-01-25T05:30:38.922Z,3.04
2023-01-25T05:35:56.256Z,3.09
2023-01-25T05:40:59.643Z,3.12
2023-01-25T05:46:02.576Z,3.09
2023-01-25T05:51:04.404Z,3.14
2023-01-25T05:56:08.992Z,3.12
2023-01-25T06:01:11.671Z,3.13
2023-01-25T06:06:22.036Z,3.16
2023-01-25T06:11:24.563Z,3.20
2023-01-25T06:16:28.506Z,3.20
2023-01-25T06:21:50.753Z,3.56
2023-01-25T06:26:52.463Z,4.00
2023-01-25T06:31:55.641Z,4.21
2023-01-25T06:36:57.370Z,4.11
2023-01-25T06:41:59.038Z,4.13
2023-01-25T06:47:00.851Z,4.27
2023-01-25T06:52:02.637Z,4.28
2023-01-25T06:57:04.354Z,4.28
2023-01-25T07:02:06.484Z,4.36
2023-01-25T07:07:09.288Z,4.42
2023-01-25T07:12:10.943Z,4.40
2023-01-25T07:17:12.651Z,4.04
2023-01-25T07:22:14.516Z,3.76
2023-01-25T07:27:17.443Z,3.62
2023-01-25T07:32:19.131Z,3.58
2023-01-25T07:37:20.865Z,3.47
2023-01-25T07:42:22.625Z,3.35
2023-01-25T07:47:27.860Z,3.16
2023-01-25T07:52:29.521Z,3.09
2023-01-25T07:57:31.855Z,3.08
2023-01-25T08:02:33.715Z,3.04
2023-01-25T08:07:35.443Z,3.04
2023-01-25T08:12:37.946Z,3.02
2023-01-25T08:17:40.227Z,3.03
2023-01-25T08:22:42.147Z,3.06
2023-01-25T08:27:43.965Z,3.04
2023-01-25T08:32:45.659Z,3.04
2023-01-25T08:37:47.453Z,3.03
2023-01-25T08:42:49.256Z,2.97
2023-01-25T08:47:50.920Z,2.99
2023-01-25T08:52:52.585Z,2.97
2023-01-25T08:57:56.460Z,2.92
2023-01-25T09:02:58.221Z,2.89
2023-01-25T09:08:00.654Z,2.89
2023-01-25T09:13:02.775Z,2.86
2023-01-25T09:18:04.579Z,2.81
2023-01-25T09:23:06.275Z,2.79
2023-01-25T09:28:11.564Z,2.79
2023-01-25T09:33:16.778Z,2.89
2023-01-25T09:38:18.551Z,2.89
2023-01-25T09:43:44.514Z,2.82
2023-01-25T09:49:07.608Z,2.76
2023-01-25T09:54:10.409Z,2.74
2023-01-25T09:59:19.758Z,2.73
2023-01-25T10:04:35.676Z,2.71
2023-01-25T10:09:44.876Z,2.68
2023-01-25T10:14:47.567Z,2.63
2023-01-25T10:19:55.482Z,2.67
2023-01-25T10:25:32.094Z,2.68
2023-01-25T10:30:56.749Z,2.67
2023-01-25T10:36:05.325Z,2.65
2023-01-25T10:41:36.347Z,2.77
2023-01-25T10:46:40.041Z,2.82
2023-01-25T10:51:41.752Z,2.81
2023-01-25T10:56:45.983Z,2.84
2023-01-25T11:01:48.169Z,2.89
2023-01-25T11:06:51.509Z,2.95
2023-01-25T11:11:56.291Z,3.03
2023-01-25T11:16:59.918Z,3.10
2023-01-25T11:22:06.159Z,3.15
2023-01-25T11:27:21.379Z,3.17
2023-01-25T11:32:25.260Z,3.19
2023-01-25T11:37:54.602Z,3.13
2023-01-25T11:43:28.627Z,3.04
2023-01-25T11:49:02.692Z,3.00
2023-01-25T11:54:17.558Z,2.86
2023-01-25T11:59:31.554Z,2.84
2023-01-25T12:04:36.028Z,2.91
2023-01-25T12:09:49.831Z,2.94
2023-01-25T12:15:15.931Z,2.93
2023-01-25T12:20:31.677Z,2.88
2023-01-25T12:26:04.328Z,2.86
2023-01-25T12:31:16.832Z,2.87
2023-01-25T12:36:28.290Z,2.87
2023-01-25T12:41:52.035Z,2.79
2023-01-25T12:47:13.428Z,2.77
2023-01-25T12:52:24.358Z,2.81
2023-01-25T12:57:33.968Z,2.78
2023-01-25T13:03:13.013Z,2.79
2023-01-25T13:08:32.183Z,2.76
2023-01-25T13:13:34.695Z,2.77
2023-01-25T13:18:38.123Z,2.75
2023-01-25T13:23:46.061Z,2.70
2023-01-25T13:28:48.834Z,2.74
2023-01-25T13:33:50.627Z,2.76
2023-01-25T13:38:52.263Z,3.16
2023-01-25T13:44:15.784Z,3.24
2023-01-25T13:49:27.156Z,3.12
2023-01-25T13:54:28.998Z,3.01
2023-01-25T13:59:30.959Z,2.91
2023-01-25T14:04:32.846Z,2.71
2023-01-25T14:09:34.777Z,2.80
2023-01-25T14:14:37.885Z,2.82
2023-01-25T14:19:41.428Z,2.78
2023-01-25T14:24:43.148Z,2.85
2023-01-25T14:29:48.746Z,2.80
2023-01-25T14:34:50.524Z,2.79
2023-01-25T14:39:52.516Z,2.79
2023-01-25T14:44:54.407Z,2.80
2023-01-25T14:49:56.172Z,2.84
2023-01-25T14:54:59.961Z,2.80
2023-01-25T15:00:09.202Z,2.83
2023-01-25T15:05:33.718Z,2.81
2023-01-25T15:10:37.468Z,2.86
2023-01-25T15:15:53.536Z,2.85
2023-01-25T15:20:55.446Z,2.82
2023-01-25T15:25:59.944Z,2.77
2023-01-25T15:31:04.235Z,2.79
2023-01-25T15:36:06.316Z,2.77
2023-01-25T15:41:08.044Z,2.72
2023-01-25T15:46:22.685Z,2.66
2023-01-25T15:51:24.519Z,2.54
2023-01-25T15:56:37.023Z,2.49
2023-01-25T16:01:38.843Z,2.52
2023-01-25T16:06:51.642Z,2.58
2023-01-25T16:11:56.380Z,2.64
2023-01-25T16:17:02.333Z,2.62
2023-01-25T16:22:04.123Z,3.13
2023-01-25T16:27:05.857Z,3.01
2023-01-25T16:32:07.543Z,2.94
2023-01-25T16:37:17.274Z,2.90
2023-01-25T16:42:21.168Z,2.77
2023-01-25T16:47:24.262Z,2.71
2023-01-25T16:52:25.928Z,2.69
2023-01-25T16:57:27.619Z,2.58
2023-01-25T17:02:29.447Z,2.57
2023-01-25T17:07:31.532Z,2.59
2023-01-25T17:12:33.399Z,2.60
2023-01-25T17:17:35.322Z,2.69
2023-01-25T17:22:38.086Z,2.74
2023-01-25T17:27:39.781Z,2.77
2023-01-25T17:32:41.551Z,2.80
2023-01-25T17:37:43.163Z,2.77
2023-01-25T17:42:44.965Z,2.82
2023-01-25T17:47:46.639Z,2.79
2023-01-25T17:52:48.434Z,2.79
2023-01-25T17:57:51.260Z,2.80
2023-01-25T18:02:53.663Z,2.79
2023-01-25T18:07:55.373Z,2.80
2023-01-25T18:13:04.440Z,2.84
2023-01-25T18:18:08.093Z,2.82
2023-01-25T18:23:09.921Z,2.69
2023-01-25T18:28:13.740Z,2.58
2023-01-25T18:33:15.311Z,2.45
2023-01-25T18:38:17.696Z,2.35
2023-01-25T18:43:20.131Z,2.40
2023-01-25T18:48:30.235Z,2.39
2023-01-25T18:53:33.677Z,2.40
2023-01-25T18:58:37.062Z,2.38
2023-01-25T19:03:38.876Z,2.31
2023-01-25T19:08:43.146Z,2.16
2023-01-25T19:13:45.159Z,2.17
2023-01-25T19:18:52.648Z,2.21
2023-01-25T19:23:55.867Z,2.27
2023-01-25T19:28:57.875Z,2.25
2023-01-25T19:34:02.018Z,2.23
2023-01-25T19:39:05.529Z,2.27
2023-01-25T19:44:09.521Z,2.29
2023-01-25T19:49:13.214Z,2.37
2023-01-25T19:54:17.303Z,2.38
2023-01-25T19:59:21.585Z,2.41
2023-01-25T20:04:24.051Z,2.41
2023-01-25T20:09:27.860Z,2.38
2023-01-25T20:14:29.782Z,2.48
2023-01-25T20:19:32.710Z,2.60
2023-01-25T20:24:34.432Z,2.63
2023-01-25T20:29:36.232Z,2.53
2023-01-25T20:34:38.032Z,2.53
2023-01-25T20:39:39.795Z,2.52
2023-01-25T20:44:41.556Z,2.52
2023-01-25T20:49:43.448Z,2.60
2023-01-25T20:54:45.209Z,2.47
2023-01-25T20:59:46.879Z,2.45
2023-01-25T21:04:48.571Z,2.46
2023-01-25T21:09:50.214Z,2.48
2023-01-25T21:14:52.256Z,2.48
2023-01-25T21:19:53.891Z,2.59
2023-01-25T21:24:55.820Z,2.68
2023-01-25T21:29:57.527Z,2.71
2023-01-25T21:34:59.241Z,2.75
2023-01-25T21:40:00.925Z,2.77
2023-01-25T21:45:21.302Z,2.72
2023-01-25T21:50:41.503Z,2.57
2023-01-25T21:55:43.388Z,2.47
2023-01-25T22:00:45.005Z,2.41
2023-01-25T22:05:54.095Z,2.37
2023-01-25T22:11:08.047Z,2.43
2023-01-25T22:16:11.153Z,2.39
2023-01-25T22:21:21.581Z,2.44
2023-01-25T22:26:24.873Z,2.35
2023-01-25T22:31:29.026Z,2.28
2023-01-25T22:36:31.303Z,2.35
2023-01-25T22:41:36.992Z,2.44
2023-01-25T22:46:38.666Z,2.39
2023-01-25T22:51:40.364Z,2.28
2023-01-25T22:56:42.031Z,2.14
2023-01-25T23:01:43.721Z,2.22
2023-01-25T23:06:45.324Z,2.26
2023-01-25T23:11:46.965Z,2.30
2023-01-25T23:16:48.703Z,2.34
2023-01-25T23:21:50.395Z,2.44
2023-01-25T23:26:51.999Z,2.33
2023-01-25T23:31:53.691Z,2.28
2023-01-25T23:36:55.377Z,2.22
2023-01-25T23:41:57.129Z,2.18
2023-01-25T23:46:59.070Z,2.17
2023-01-25T23:52:01.115Z,2.18
2023-01-25T23:57:02.993Z,2.24
